This is the latest recevied weather packets stored in our database for station/object AC5CM. If no packets are shown the sender has not sent any weather packets the latest 10 day(s).
| Time | Temp. | Humidity | Pressure | Rain* | Wind** | Luminosity | Snow |
|---|---|---|---|---|---|---|---|
| 1777909644 | 25° C | 61% | 1017 hPa | 0 mm | - | - | - |
| 1777909342 | 25° C | 61% | 1016.9 hPa | 0 mm | - | - | - |
| 1777909039 | 25.56° C | 61% | 1016.8 hPa | 0 mm | - | - | - |
| 1777908737 | 26.11° C | 60% | 1016.8 hPa | 0 mm | - | - | - |
| 1777908434 | 25.56° C | 60% | 1017 hPa | 0 mm | - | - | - |
| 1777908130 | 25° C | 62% | 1016.8 hPa | 0 mm | - | - | - |
| 1777907826 | 24.44° C | 64% | 1016.9 hPa | 0 mm | - | - | - |
| 1777907522 | 25.56° C | 60% | 1016.7 hPa | 0 mm | - | - | - |
| 1777907219 | 25.56° C | 61% | 1016.7 hPa | 0 mm | - | - | - |
| 1777906915 | 24.44° C | 62% | 1016.8 hPa | 0 mm | - | - | - |
| 1777906613 | 24.44° C | 62% | 1016.8 hPa | 0 mm | - | - | - |
| 1777906308 | 25° C | 61% | 1017 hPa | 0 mm | - | - | - |
| 1777906006 | 24.44° C | 63% | 1017 hPa | 0 mm | - | - | - |
| 1777905702 | 24.44° C | 64% | 1017.1 hPa | 0 mm | - | - | - |
| 1777905398 | 24.44° C | 64% | 1017 hPa | 0 mm | - | - | - |
| 1777905096 | 24.44° C | 63% | 1016.8 hPa | 0 mm | - | - | - |
| 1777904793 | 23.89° C | 66% | 1017.1 hPa | 0 mm | - | - | - |
| 1777904491 | 23.33° C | 66% | 1017.1 hPa | 0 mm | - | - | - |
| 1777904187 | 22.78° C | 66% | 1016.8 hPa | 0 mm | - | - | - |
| 1777903884 | 23.33° C | 65% | 1017 hPa | 0 mm | - | - | - |
| 1777903581 | 22.78° C | 65% | 1016.7 hPa | 0 mm | - | - | - |
| 1777903277 | 22.22° C | 68% | 1016.9 hPa | 0 mm | - | - | - |
| 1777902974 | 21.67° C | 67% | 1016.8 hPa | 0 mm | - | - | - |
| 1777902670 | 21.67° C | 70% | 1016.8 hPa | 0 mm | - | - | - |
| 1777902368 | 21.67° C | 68% | 1017 hPa | 0 mm | - | - | - |
* Rain latest hour (hover to see other rain measurements)
** Current wind speed in m/s (hover to see current wind gust speed)